createdAt,value
2022-11-07T00:00:08.375Z,23.41
2022-11-07T00:02:34.877Z,23.40
2022-11-07T00:05:02.321Z,23.32
2022-11-07T00:07:28.852Z,23.29
2022-11-07T00:09:55.325Z,23.26
2022-11-07T00:12:21.785Z,23.26
2022-11-07T00:14:48.277Z,23.24
2022-11-07T00:17:15.411Z,23.24
2022-11-07T00:19:41.913Z,23.24
2022-11-07T00:22:08.377Z,23.20
2022-11-07T00:24:34.872Z,23.19
2022-11-07T00:27:01.438Z,23.19
2022-11-07T00:29:27.951Z,23.17
2022-11-07T00:31:54.595Z,23.15
2022-11-07T00:34:21.056Z,23.14
2022-11-07T00:36:47.516Z,23.13
2022-11-07T00:39:13.997Z,23.10
2022-11-07T00:41:40.502Z,23.11
2022-11-07T00:44:07.002Z,23.14
2022-11-07T00:46:33.570Z,23.13
2022-11-07T00:49:00.051Z,23.13
2022-11-07T00:51:27.295Z,23.11
2022-11-07T00:53:53.830Z,23.10
2022-11-07T00:56:22.548Z,23.06
2022-11-07T00:58:49.043Z,23.08
2022-11-07T01:01:17.258Z,23.05
2022-11-07T01:04:02.461Z,23.07
2022-11-07T01:06:29.730Z,23.04
2022-11-07T01:08:56.636Z,22.99
2022-11-07T01:11:23.895Z,22.96
2022-11-07T01:13:50.414Z,22.93
2022-11-07T01:16:16.853Z,22.94
2022-11-07T01:18:43.337Z,22.90
2022-11-07T01:21:15.119Z,22.89
2022-11-07T01:23:42.895Z,22.87
2022-11-07T01:26:10.006Z,22.86
2022-11-07T01:28:36.617Z,22.84
2022-11-07T01:31:03.933Z,22.81
2022-11-07T01:33:30.515Z,22.78
2022-11-07T01:36:06.236Z,22.79
2022-11-07T01:38:32.947Z,22.78
2022-11-07T01:41:18.005Z,22.71
2022-11-07T01:44:00.521Z,22.72
2022-11-07T01:46:30.828Z,22.76
2022-11-07T01:49:28.651Z,22.74
2022-11-07T01:52:02.914Z,22.74
2022-11-07T01:54:39.031Z,22.73
2022-11-07T01:57:09.347Z,22.71
2022-11-07T01:59:35.824Z,22.71
2022-11-07T02:02:02.424Z,22.70
2022-11-07T02:04:29.617Z,22.67
2022-11-07T02:07:01.003Z,22.66
2022-11-07T02:09:27.690Z,22.65
2022-11-07T02:11:54.162Z,22.62
2022-11-07T02:14:20.697Z,22.57
2022-11-07T02:16:47.153Z,22.57
2022-11-07T02:19:30.227Z,22.57
2022-11-07T02:22:22.070Z,22.55
2022-11-07T02:24:50.872Z,22.55
2022-11-07T02:27:18.553Z,22.50
2022-11-07T02:29:46.512Z,22.49
2022-11-07T02:32:13.039Z,22.48
2022-11-07T02:34:39.510Z,22.44
2022-11-07T02:37:09.882Z,22.43
2022-11-07T02:39:36.342Z,22.42
2022-11-07T02:42:02.816Z,22.38
2022-11-07T02:44:29.517Z,22.38
2022-11-07T02:46:56.111Z,22.37
2022-11-07T02:49:22.588Z,22.34
2022-11-07T02:51:49.057Z,22.34
2022-11-07T02:54:15.517Z,22.33
2022-11-07T02:56:41.971Z,22.32
2022-11-07T02:59:08.449Z,22.29
2022-11-07T03:01:35.084Z,22.25
2022-11-07T03:04:01.966Z,22.20
2022-11-07T03:06:28.472Z,22.20
2022-11-07T03:08:54.945Z,22.23
2022-11-07T03:11:21.435Z,22.24
2022-11-07T03:13:48.120Z,22.24
2022-11-07T03:16:15.107Z,22.23
2022-11-07T03:18:41.575Z,22.23
2022-11-07T03:21:08.107Z,22.22
2022-11-07T03:23:35.065Z,22.22
2022-11-07T03:26:01.934Z,22.20
2022-11-07T03:28:28.399Z,22.19
2022-11-07T03:30:54.906Z,22.17
2022-11-07T03:33:21.404Z,22.16
2022-11-07T03:35:47.885Z,22.15
2022-11-07T03:38:14.355Z,22.09
2022-11-07T03:40:40.827Z,22.02
2022-11-07T03:43:07.312Z,22.04
2022-11-07T03:45:33.792Z,22.09
2022-11-07T03:48:00.276Z,22.11
2022-11-07T03:50:27.167Z,22.15
2022-11-07T03:52:53.689Z,22.19
2022-11-07T03:55:20.199Z,22.13
2022-11-07T03:57:46.806Z,22.15
2022-11-07T04:00:13.689Z,22.13
2022-11-07T04:02:40.516Z,22.12
2022-11-07T04:05:07.519Z,22.10
2022-11-07T04:07:34.183Z,22.10
2022-11-07T04:10:00.650Z,22.08
2022-11-07T04:12:45.659Z,22.04
2022-11-07T04:15:30.691Z,22.05
2022-11-07T04:17:57.175Z,22.00
2022-11-07T04:20:23.653Z,21.98
2022-11-07T04:22:50.116Z,21.97
2022-11-07T04:25:16.584Z,21.95
2022-11-07T04:27:43.061Z,21.92
2022-11-07T04:30:19.632Z,21.90
2022-11-07T04:32:46.889Z,21.90
2022-11-07T04:35:13.583Z,21.91
2022-11-07T04:37:40.448Z,21.89
2022-11-07T04:40:07.841Z,21.90
2022-11-07T04:42:34.297Z,21.90
2022-11-07T04:45:00.790Z,21.90
2022-11-07T04:47:27.290Z,21.88
2022-11-07T04:49:53.784Z,21.88
2022-11-07T04:52:20.242Z,21.87
2022-11-07T04:54:46.734Z,21.85
2022-11-07T04:57:13.273Z,21.85
2022-11-07T04:59:39.740Z,21.83
2022-11-07T05:02:06.370Z,21.82
2022-11-07T05:04:32.973Z,21.80
2022-11-07T05:06:59.437Z,21.79
2022-11-07T05:09:27.329Z,21.79
2022-11-07T05:11:54.104Z,21.77
2022-11-07T05:14:20.589Z,21.78
2022-11-07T05:16:47.042Z,21.77
2022-11-07T05:19:17.183Z,21.76
2022-11-07T05:21:45.439Z,21.75
2022-11-07T05:24:13.500Z,21.74
2022-11-07T05:26:40.094Z,21.74
2022-11-07T05:29:08.036Z,21.72
2022-11-07T05:31:34.518Z,21.71
2022-11-07T05:34:00.980Z,21.68
2022-11-07T05:36:27.449Z,21.65
2022-11-07T05:38:53.932Z,21.65
2022-11-07T05:41:21.100Z,21.65
2022-11-07T05:43:47.781Z,21.60
2022-11-07T05:46:14.618Z,21.61
2022-11-07T05:48:41.148Z,21.59
2022-11-07T05:51:07.745Z,21.59
2022-11-07T05:53:34.455Z,21.62
2022-11-07T05:56:01.046Z,21.62
2022-11-07T05:58:27.535Z,21.67
2022-11-07T06:00:54.068Z,21.63
2022-11-07T06:03:20.861Z,21.66
2022-11-07T06:05:47.674Z,21.63
2022-11-07T06:08:14.205Z,21.64
2022-11-07T06:10:41.398Z,21.64
2022-11-07T06:13:10.221Z,21.61
2022-11-07T06:15:36.893Z,21.61
2022-11-07T06:18:04.305Z,21.62
2022-11-07T06:20:30.786Z,21.61
2022-11-07T06:23:01.091Z,21.59
2022-11-07T06:25:28.239Z,21.58
2022-11-07T06:28:16.928Z,21.56
2022-11-07T06:30:43.461Z,21.54
2022-11-07T06:33:19.066Z,21.54
2022-11-07T06:35:45.971Z,21.51
2022-11-07T06:38:13.213Z,21.51
2022-11-07T06:40:40.655Z,21.51
2022-11-07T06:43:17.877Z,21.49
2022-11-07T06:45:44.908Z,21.49
2022-11-07T06:48:11.708Z,21.47
2022-11-07T06:50:38.374Z,21.48
2022-11-07T06:53:06.225Z,21.52
2022-11-07T06:55:34.208Z,21.54
2022-11-07T06:58:00.930Z,21.54
2022-11-07T07:00:33.836Z,21.54
2022-11-07T07:03:00.357Z,21.57
2022-11-07T07:05:26.966Z,21.57
2022-11-07T07:07:57.019Z,21.55
2022-11-07T07:10:25.311Z,21.58
2022-11-07T07:12:52.997Z,21.57
2022-11-07T07:15:19.557Z,21.56
2022-11-07T07:17:46.022Z,21.55
2022-11-07T07:20:12.491Z,21.55
2022-11-07T07:22:39.194Z,21.57
2022-11-07T07:25:06.217Z,21.59
2022-11-07T07:27:32.691Z,21.59
2022-11-07T07:29:59.167Z,21.59
2022-11-07T07:32:25.686Z,21.57
2022-11-07T07:34:52.319Z,21.57
2022-11-07T07:37:18.844Z,21.57
2022-11-07T07:39:45.337Z,21.57
2022-11-07T07:42:11.785Z,21.54
2022-11-07T07:44:39.318Z,21.59
2022-11-07T07:47:10.853Z,21.57
2022-11-07T07:49:37.725Z,21.56
2022-11-07T07:52:04.343Z,21.58
2022-11-07T07:54:30.818Z,21.50
2022-11-07T07:56:57.298Z,21.49
2022-11-07T07:59:23.784Z,21.50
2022-11-07T08:01:56.282Z,21.53
2022-11-07T08:04:23.477Z,21.53
2022-11-07T08:06:49.932Z,21.58
2022-11-07T08:09:16.381Z,21.59
2022-11-07T08:11:42.854Z,21.61
2022-11-07T08:14:11.453Z,21.61
2022-11-07T08:16:37.946Z,21.65
2022-11-07T08:19:04.410Z,21.65
2022-11-07T08:21:30.880Z,21.64
2022-11-07T08:23:57.349Z,21.63
2022-11-07T08:26:23.814Z,21.58
2022-11-07T08:28:50.301Z,21.59
2022-11-07T08:31:16.824Z,21.57
2022-11-07T08:33:43.317Z,21.56
2022-11-07T08:36:10.067Z,21.50
2022-11-07T08:38:36.808Z,21.53
2022-11-07T08:41:03.772Z,21.52
2022-11-07T08:43:30.251Z,21.51
2022-11-07T08:45:56.746Z,21.51
2022-11-07T08:48:23.338Z,21.51
2022-11-07T08:50:54.378Z,21.51
2022-11-07T08:53:21.432Z,21.51
2022-11-07T08:55:48.024Z,21.50
2022-11-07T08:58:15.117Z,21.49
2022-11-07T09:00:41.730Z,21.49
2022-11-07T09:03:24.360Z,21.47
2022-11-07T09:05:56.465Z,21.46
2022-11-07T09:08:22.969Z,21.47
2022-11-07T09:10:49.532Z,21.46
2022-11-07T09:13:17.531Z,21.46
2022-11-07T09:15:49.499Z,21.45
2022-11-07T09:18:17.318Z,21.45
2022-11-07T09:20:43.781Z,21.43
2022-11-07T09:23:10.431Z,21.44
2022-11-07T09:25:36.923Z,21.43
2022-11-07T09:28:03.850Z,21.43
2022-11-07T09:30:30.321Z,21.42
2022-11-07T09:32:57.044Z,21.43
2022-11-07T09:35:23.603Z,21.44
2022-11-07T09:37:50.508Z,21.44
2022-11-07T09:40:19.871Z,21.42
2022-11-07T09:43:05.683Z,21.43
2022-11-07T09:45:32.155Z,21.42
2022-11-07T09:48:00.284Z,21.43
2022-11-07T09:50:31.825Z,21.43
2022-11-07T09:53:04.186Z,21.41
2022-11-07T09:55:35.693Z,21.42
2022-11-07T09:58:03.875Z,21.43
2022-11-07T10:00:31.058Z,21.41
2022-11-07T10:02:58.182Z,21.40
2022-11-07T10:05:24.516Z,21.41
2022-11-07T10:08:22.206Z,21.39
2022-11-07T10:11:03.952Z,21.40
2022-11-07T10:13:46.156Z,21.39
2022-11-07T10:16:18.449Z,21.39
2022-11-07T10:18:59.523Z,21.38
2022-11-07T10:21:42.266Z,21.37
2022-11-07T10:24:37.242Z,21.38
2022-11-07T10:27:03.803Z,21.38
2022-11-07T10:29:47.785Z,21.37
2022-11-07T10:32:34.357Z,21.37
2022-11-07T10:35:26.114Z,21.35
2022-11-07T10:37:57.165Z,21.35
2022-11-07T10:40:23.650Z,21.34
2022-11-07T10:42:50.146Z,21.34
2022-11-07T10:45:17.396Z,21.31
2022-11-07T10:47:54.596Z,21.33
2022-11-07T10:50:22.257Z,21.32
2022-11-07T10:52:55.745Z,21.34
2022-11-07T10:55:22.403Z,21.35
2022-11-07T10:57:52.845Z,21.36
2022-11-07T11:00:37.061Z,21.36
2022-11-07T11:03:03.575Z,21.36
2022-11-07T11:05:40.997Z,21.35
2022-11-07T11:08:18.718Z,21.34
2022-11-07T11:10:45.561Z,21.35
2022-11-07T11:13:31.623Z,21.35
2022-11-07T11:16:05.692Z,21.36
2022-11-07T11:18:32.432Z,21.37
2022-11-07T11:21:03.182Z,21.36
2022-11-07T11:23:30.941Z,21.37
2022-11-07T11:26:09.656Z,21.38
2022-11-07T11:28:39.524Z,21.38
2022-11-07T11:31:08.105Z,21.37
2022-11-07T11:33:54.675Z,21.36
2022-11-07T11:36:26.250Z,21.35
2022-11-07T11:38:55.685Z,21.35
2022-11-07T11:41:35.944Z,21.35
2022-11-07T11:44:18.692Z,21.34
2022-11-07T11:47:14.277Z,21.32
2022-11-07T11:49:47.868Z,21.34
2022-11-07T11:52:19.657Z,21.32
2022-11-07T11:54:46.868Z,21.32
2022-11-07T11:57:21.280Z,21.29
2022-11-07T12:00:14.815Z,21.32
2022-11-07T12:02:54.958Z,21.29
2022-11-07T12:05:47.771Z,21.31
2022-11-07T12:08:17.628Z,21.33
2022-11-07T12:10:44.916Z,21.36
2022-11-07T12:13:19.120Z,21.35
2022-11-07T12:15:52.525Z,21.36
2022-11-07T12:18:24.440Z,21.41
2022-11-07T12:21:12.235Z,21.57
2022-11-07T12:24:02.911Z,21.65
2022-11-07T12:26:33.802Z,21.70
2022-11-07T12:29:15.445Z,21.75
2022-11-07T12:32:00.229Z,21.80
2022-11-07T12:34:41.065Z,21.87
2022-11-07T12:37:42.864Z,21.93
2022-11-07T12:40:21.645Z,21.93
2022-11-07T12:43:09.830Z,21.92
2022-11-07T12:45:59.731Z,21.91
2022-11-07T12:49:04.038Z,21.92
2022-11-07T12:51:58.385Z,21.91
2022-11-07T12:54:33.782Z,21.89
2022-11-07T12:57:02.407Z,21.90
2022-11-07T12:59:29.933Z,21.90
2022-11-07T13:02:22.627Z,21.90
2022-11-07T13:04:55.944Z,21.93
2022-11-07T13:07:27.374Z,21.94
2022-11-07T13:10:16.863Z,21.93
2022-11-07T13:13:23.606Z,21.94
2022-11-07T13:16:14.103Z,21.95
2022-11-07T13:18:36.700Z,21.98
2022-11-07T13:21:05.653Z,22.01
2022-11-07T13:23:32.219Z,22.02
2022-11-07T13:26:10.685Z,22.00
2022-11-07T13:29:00.071Z,22.03
2022-11-07T13:31:39.357Z,22.05
2022-11-07T13:34:50.792Z,22.06
2022-11-07T13:37:20.142Z,22.12
2022-11-07T13:39:47.147Z,22.13
2022-11-07T13:42:17.348Z,22.13
2022-11-07T13:44:43.819Z,22.13
2022-11-07T13:47:15.292Z,22.13
2022-11-07T13:49:45.008Z,22.12
2022-11-07T13:52:22.539Z,22.09
2022-11-07T13:55:04.150Z,22.04
2022-11-07T13:57:34.479Z,22.01
2022-11-07T14:00:10.918Z,22.04
2022-11-07T14:02:37.532Z,22.08
2022-11-07T14:05:21.558Z,22.15
2022-11-07T14:07:49.681Z,22.19
2022-11-07T14:10:24.293Z,22.26
2022-11-07T14:12:59.079Z,22.32
2022-11-07T14:15:25.563Z,22.37
2022-11-07T14:17:52.042Z,22.37
2022-11-07T14:20:19.680Z,22.38
2022-11-07T14:22:50.655Z,22.34
2022-11-07T14:25:26.545Z,22.36
2022-11-07T14:27:53.073Z,22.36
2022-11-07T14:30:20.217Z,22.38
2022-11-07T14:32:51.634Z,22.39
2022-11-07T14:35:20.071Z,22.39
2022-11-07T14:37:46.793Z,22.35
2022-11-07T14:40:13.269Z,22.34
2022-11-07T14:42:39.808Z,22.33
2022-11-07T14:45:06.940Z,22.33
2022-11-07T14:47:33.559Z,22.33
2022-11-07T14:50:01.601Z,22.31
2022-11-07T14:52:38.833Z,22.31
2022-11-07T14:55:20.827Z,22.28
2022-11-07T14:57:47.339Z,22.25
2022-11-07T15:00:15.550Z,22.22
2022-11-07T15:02:42.185Z,22.18
2022-11-07T15:05:24.965Z,22.15
2022-11-07T15:07:51.592Z,22.11
2022-11-07T15:10:25.577Z,22.10
2022-11-07T15:13:02.962Z,22.10
2022-11-07T15:15:33.656Z,22.13
2022-11-07T15:18:04.652Z,22.18
2022-11-07T15:20:31.046Z,22.24
2022-11-07T15:22:59.516Z,22.31
2022-11-07T15:25:38.062Z,22.36
2022-11-07T15:28:30.081Z,22.40
2022-11-07T15:30:59.881Z,22.40
2022-11-07T15:33:29.374Z,22.42
2022-11-07T15:35:57.063Z,22.42
2022-11-07T15:38:25.456Z,22.43
2022-11-07T15:40:51.978Z,22.43
2022-11-07T15:43:18.669Z,22.45
2022-11-07T15:45:45.486Z,22.44
2022-11-07T15:48:17.700Z,22.44
2022-11-07T15:50:45.285Z,22.43
2022-11-07T15:53:22.981Z,22.45
2022-11-07T15:55:53.926Z,22.44
2022-11-07T15:58:24.606Z,22.47
2022-11-07T16:00:51.816Z,22.47
2022-11-07T16:03:19.985Z,22.46
2022-11-07T16:05:47.421Z,22.46
2022-11-07T16:08:15.675Z,22.43
2022-11-07T16:10:44.988Z,22.42
2022-11-07T16:13:11.498Z,22.44
2022-11-07T16:15:37.971Z,22.44
2022-11-07T16:18:04.664Z,22.41
2022-11-07T16:20:33.490Z,22.41
2022-11-07T16:23:00.603Z,22.35
2022-11-07T16:25:27.156Z,22.32
2022-11-07T16:27:56.176Z,22.27
2022-11-07T16:30:22.992Z,22.24
2022-11-07T16:32:49.464Z,22.23
2022-11-07T16:35:16.053Z,22.23
2022-11-07T16:37:42.524Z,22.23
2022-11-07T16:40:15.145Z,22.23
2022-11-07T16:42:41.843Z,22.32
2022-11-07T16:45:08.707Z,22.38
2022-11-07T16:47:37.091Z,22.45
2022-11-07T16:50:04.063Z,22.43
2022-11-07T16:52:30.587Z,22.38
2022-11-07T16:54:57.042Z,22.04
2022-11-07T16:57:23.759Z,21.74
2022-11-07T16:59:52.295Z,21.92
2022-11-07T17:02:21.700Z,22.21
2022-11-07T17:04:49.359Z,22.36
2022-11-07T17:07:15.976Z,22.43
2022-11-07T17:09:42.615Z,22.46
2022-11-07T17:12:12.547Z,22.56
2022-11-07T17:14:39.101Z,22.64
2022-11-07T17:17:05.618Z,22.68
2022-11-07T17:19:32.399Z,22.67
2022-11-07T17:22:00.024Z,22.73
2022-11-07T17:24:26.520Z,22.79
2022-11-07T17:26:53.097Z,22.82
2022-11-07T17:29:19.562Z,22.79
2022-11-07T17:31:49.032Z,22.83
2022-11-07T17:34:15.512Z,22.91
2022-11-07T17:36:46.194Z,23.02
2022-11-07T17:39:20.027Z,23.26
2022-11-07T17:41:47.757Z,23.67
2022-11-07T17:44:14.284Z,23.89
2022-11-07T17:46:44.879Z,24.00
2022-11-07T17:49:13.269Z,24.16
2022-11-07T17:51:41.684Z,24.29
2022-11-07T17:54:09.855Z,24.46
2022-11-07T17:56:36.392Z,24.55
2022-11-07T17:59:05.101Z,24.86
2022-11-07T18:01:33.336Z,25.00
2022-11-07T18:03:59.996Z,25.08
2022-11-07T18:06:26.619Z,25.08
2022-11-07T18:08:54.920Z,25.09
2022-11-07T18:11:23.002Z,25.16
2022-11-07T18:13:49.968Z,25.20
2022-11-07T18:16:19.629Z,25.27
2022-11-07T18:18:46.160Z,25.36
2022-11-07T18:21:12.697Z,25.49
2022-11-07T18:23:40.374Z,25.77
2022-11-07T18:26:11.617Z,25.95
2022-11-07T18:28:39.002Z,25.69
2022-11-07T18:31:07.086Z,25.32
2022-11-07T18:33:33.876Z,25.17
2022-11-07T18:36:01.351Z,25.13
2022-11-07T18:38:27.903Z,25.13
2022-11-07T18:41:05.751Z,25.12
2022-11-07T18:43:32.448Z,25.11
2022-11-07T18:45:59.210Z,25.15
2022-11-07T18:48:25.833Z,25.15
2022-11-07T18:50:52.355Z,25.10
2022-11-07T18:53:18.847Z,25.14
2022-11-07T18:55:45.307Z,25.28
2022-11-07T18:58:11.806Z,25.26
2022-11-07T19:00:38.388Z,25.35
2022-11-07T19:03:04.898Z,25.39
2022-11-07T19:05:36.096Z,25.37
2022-11-07T19:08:06.591Z,25.44
2022-11-07T19:10:33.363Z,25.39
2022-11-07T19:13:04.054Z,25.42
2022-11-07T19:15:39.551Z,25.41
2022-11-07T19:18:06.029Z,25.43
2022-11-07T19:20:32.546Z,25.43
2022-11-07T19:22:59.113Z,25.39
2022-11-07T19:25:25.575Z,25.42
2022-11-07T19:27:52.100Z,25.42
2022-11-07T19:30:18.626Z,25.43
2022-11-07T19:32:45.719Z,25.43
2022-11-07T19:35:12.252Z,25.43
2022-11-07T19:37:38.774Z,25.42
2022-11-07T19:40:06.378Z,25.39
2022-11-07T19:42:32.856Z,25.40
2022-11-07T19:44:59.424Z,25.40
2022-11-07T19:47:26.079Z,25.38
2022-11-07T19:49:52.586Z,25.37
2022-11-07T19:52:19.075Z,25.36
2022-11-07T19:54:45.844Z,25.35
2022-11-07T19:57:12.368Z,25.34
2022-11-07T19:59:38.825Z,25.35
2022-11-07T20:02:36.332Z,25.34
2022-11-07T20:04:53.524Z,25.34
2022-11-07T20:07:20.006Z,25.32
2022-11-07T20:09:46.461Z,25.30
2022-11-07T20:12:12.943Z,25.32
2022-11-07T20:14:39.402Z,25.30
2022-11-07T20:17:05.915Z,25.30
2022-11-07T20:19:33.884Z,25.30
2022-11-07T20:22:01.059Z,25.24
2022-11-07T20:24:27.856Z,25.20
2022-11-07T20:26:54.399Z,25.16
2022-11-07T20:29:22.852Z,25.17
2022-11-07T20:31:49.649Z,25.13
2022-11-07T20:34:17.835Z,25.13
2022-11-07T20:36:44.466Z,25.11
2022-11-07T20:39:11.808Z,25.07
2022-11-07T20:41:38.695Z,25.06
2022-11-07T20:44:06.272Z,25.08
2022-11-07T20:46:34.606Z,25.01
2022-11-07T20:49:01.648Z,24.91
2022-11-07T20:51:28.126Z,24.85
2022-11-07T20:53:54.731Z,24.81
2022-11-07T20:56:22.159Z,24.82
2022-11-07T20:58:48.726Z,24.82
2022-11-07T21:01:23.398Z,24.81
2022-11-07T21:03:50.088Z,24.79
2022-11-07T21:06:16.860Z,24.78
2022-11-07T21:08:44.730Z,24.76
2022-11-07T21:11:11.486Z,24.77
2022-11-07T21:13:38.423Z,24.73
2022-11-07T21:16:05.446Z,24.72
2022-11-07T21:18:32.149Z,24.70
2022-11-07T21:21:12.455Z,24.68
2022-11-07T21:23:38.967Z,24.84
2022-11-07T21:26:07.099Z,24.92
2022-11-07T21:28:33.650Z,24.94
2022-11-07T21:31:04.378Z,24.93
2022-11-07T21:33:31.006Z,24.94
2022-11-07T21:35:57.481Z,24.92
2022-11-07T21:38:24.101Z,24.92
2022-11-07T21:40:50.563Z,24.89
2022-11-07T21:43:17.266Z,24.89
2022-11-07T21:45:43.921Z,24.87
2022-11-07T21:48:10.455Z,24.87
2022-11-07T21:50:44.989Z,24.85
2022-11-07T21:53:12.059Z,24.84
2022-11-07T21:55:38.598Z,24.83
2022-11-07T21:58:05.228Z,24.82
2022-11-07T22:00:35.834Z,24.80
2022-11-07T22:03:02.895Z,24.83
2022-11-07T22:05:29.362Z,24.83
2022-11-07T22:07:55.811Z,24.80
2022-11-07T22:10:22.279Z,24.81
2022-11-07T22:12:50.573Z,24.79
2022-11-07T22:15:17.110Z,24.77
2022-11-07T22:17:43.576Z,24.74
2022-11-07T22:20:10.689Z,24.74
2022-11-07T22:22:37.772Z,24.73
2022-11-07T22:25:04.797Z,24.71
2022-11-07T22:27:31.268Z,24.69
2022-11-07T22:29:57.878Z,24.67
2022-11-07T22:32:24.393Z,24.66
2022-11-07T22:34:50.853Z,24.63
2022-11-07T22:37:17.309Z,24.64
2022-11-07T22:39:43.774Z,24.60
2022-11-07T22:42:10.230Z,24.54
2022-11-07T22:44:37.027Z,24.50
2022-11-07T22:47:03.699Z,24.46
2022-11-07T22:49:30.204Z,24.50
2022-11-07T22:51:56.712Z,24.51
2022-11-07T22:54:23.180Z,24.51
2022-11-07T22:56:49.641Z,24.50
2022-11-07T22:59:16.094Z,24.47
2022-11-07T23:01:42.729Z,24.47
2022-11-07T23:04:13.047Z,24.45
2022-11-07T23:06:39.514Z,24.43
2022-11-07T23:09:07.001Z,24.43
2022-11-07T23:11:50.314Z,24.41
2022-11-07T23:14:18.451Z,24.40
2022-11-07T23:16:49.244Z,24.39
2022-11-07T23:19:16.992Z,24.31
2022-11-07T23:21:43.564Z,24.09
2022-11-07T23:24:10.097Z,23.98
2022-11-07T23:26:36.614Z,23.87
2022-11-07T23:29:10.413Z,23.85
2022-11-07T23:31:41.315Z,23.84
2022-11-07T23:34:07.955Z,23.79
2022-11-07T23:36:34.463Z,23.75
2022-11-07T23:39:07.420Z,23.73
2022-11-07T23:41:34.116Z,23.69
2022-11-07T23:44:00.606Z,23.66
2022-11-07T23:46:45.365Z,23.65
2022-11-07T23:49:30.434Z,23.59
2022-11-07T23:51:56.970Z,23.58
2022-11-07T23:54:41.939Z,23.55
2022-11-07T23:57:08.406Z,23.53
2022-11-07T23:59:53.999Z,23.50
